sensor_id;sensor_type;location;lat;lon;timestamp;P1;durP1;ratioP1;P2;durP2;ratioP2
70929;SDS011;58588;48.102;19.682;2022-09-09T00:02:22;5.70;;;1.83;;
70929;SDS011;58588;48.102;19.682;2022-09-09T00:05:29;6.40;;;1.83;;
70929;SDS011;58588;48.102;19.682;2022-09-09T00:08:41;5.33;;;1.67;;
70929;SDS011;58588;48.102;19.682;2022-09-09T00:11:51;5.07;;;1.92;;
70929;SDS011;58588;48.102;19.682;2022-09-09T00:14:56;5.22;;;1.60;;
70929;SDS011;58588;48.102;19.682;2022-09-09T00:18:07;6.68;;;1.50;;
70929;SDS011;58588;48.102;19.682;2022-09-09T00:21:15;7.30;;;1.60;;
70929;SDS011;58588;48.102;19.682;2022-09-09T00:24:23;5.17;;;1.63;;
70929;SDS011;58588;48.102;19.682;2022-09-09T00:27:29;6.00;;;2.10;;
70929;SDS011;58588;48.102;19.682;2022-09-09T00:30:38;5.10;;;1.42;;
70929;SDS011;58588;48.102;19.682;2022-09-09T00:33:41;5.22;;;1.48;;
70929;SDS011;58588;48.102;19.682;2022-09-09T00:36:44;4.80;;;1.45;;
70929;SDS011;58588;48.102;19.682;2022-09-09T00:39:50;4.93;;;1.13;;
70929;SDS011;58588;48.102;19.682;2022-09-09T00:43:06;5.13;;;1.40;;
70929;SDS011;58588;48.102;19.682;2022-09-09T00:49:52;5.20;;;1.20;;
70929;SDS011;58588;48.102;19.682;2022-09-09T00:56:27;4.73;;;1.40;;
70929;SDS011;58588;48.102;19.682;2022-09-09T00:59:37;4.80;;;1.27;;
70929;SDS011;58588;48.102;19.682;2022-09-09T01:02:49;4.00;;;1.10;;
70929;SDS011;58588;48.102;19.682;2022-09-09T01:06:00;5.15;;;1.00;;
70929;SDS011;58588;48.102;19.682;2022-09-09T01:09:07;5.20;;;1.10;;
70929;SDS011;58588;48.102;19.682;2022-09-09T01:12:23;3.67;;;1.00;;
70929;SDS011;58588;48.102;19.682;2022-09-09T01:15:27;4.45;;;1.13;;
70929;SDS011;58588;48.102;19.682;2022-09-09T01:18:33;6.70;;;1.13;;
70929;SDS011;58588;48.102;19.682;2022-09-09T01:21:39;5.60;;;1.00;;
70929;SDS011;58588;48.102;19.682;2022-09-09T01:24:51;4.05;;;1.15;;
70929;SDS011;58588;48.102;19.682;2022-09-09T01:28:16;6.67;;;1.13;;
70929;SDS011;58588;48.102;19.682;2022-09-09T01:31:26;5.47;;;1.40;;
70929;SDS011;58588;48.102;19.682;2022-09-09T01:34:33;4.32;;;1.20;;
70929;SDS011;58588;48.102;19.682;2022-09-09T01:37:40;4.13;;;1.20;;
70929;SDS011;58588;48.102;19.682;2022-09-09T01:40:42;4.80;;;1.00;;
70929;SDS011;58588;48.102;19.682;2022-09-09T01:43:45;5.60;;;1.10;;
70929;SDS011;58588;48.102;19.682;2022-09-09T01:46:47;4.00;;;1.10;;
70929;SDS011;58588;48.102;19.682;2022-09-09T01:49:49;4.60;;;1.20;;
70929;SDS011;58588;48.102;19.682;2022-09-09T01:52:52;6.95;;;1.20;;
70929;SDS011;58588;48.102;19.682;2022-09-09T01:56:02;4.22;;;1.05;;
70929;SDS011;58588;48.102;19.682;2022-09-09T01:59:24;4.90;;;1.37;;
70929;SDS011;58588;48.102;19.682;2022-09-09T02:02:38;5.45;;;1.27;;
70929;SDS011;58588;48.102;19.682;2022-09-09T02:05:49;6.85;;;1.60;;
70929;SDS011;58588;48.102;19.682;2022-09-09T02:08:59;4.63;;;1.55;;
70929;SDS011;58588;48.102;19.682;2022-09-09T02:12:05;5.45;;;1.50;;
70929;SDS011;58588;48.102;19.682;2022-09-09T02:15:14;4.80;;;1.30;;
70929;SDS011;58588;48.102;19.682;2022-09-09T02:18:21;5.25;;;1.45;;
70929;SDS011;58588;48.102;19.682;2022-09-09T02:21:28;5.85;;;1.50;;
70929;SDS011;58588;48.102;19.682;2022-09-09T02:24:33;20.08;;;1.90;;
70929;SDS011;58588;48.102;19.682;2022-09-09T02:27:37;7.95;;;1.60;;
70929;SDS011;58588;48.102;19.682;2022-09-09T02:30:42;5.40;;;1.70;;
70929;SDS011;58588;48.102;19.682;2022-09-09T02:33:48;6.22;;;1.60;;
70929;SDS011;58588;48.102;19.682;2022-09-09T02:36:54;5.03;;;1.60;;
70929;SDS011;58588;48.102;19.682;2022-09-09T02:39:58;6.15;;;1.70;;
70929;SDS011;58588;48.102;19.682;2022-09-09T02:43:00;4.60;;;1.40;;
70929;SDS011;58588;48.102;19.682;2022-09-09T02:46:07;6.80;;;1.70;;
70929;SDS011;58588;48.102;19.682;2022-09-09T02:49:18;6.05;;;1.60;;
70929;SDS011;58588;48.102;19.682;2022-09-09T02:52:30;6.25;;;1.42;;
70929;SDS011;58588;48.102;19.682;2022-09-09T02:55:41;5.00;;;1.60;;
70929;SDS011;58588;48.102;19.682;2022-09-09T02:58:46;5.78;;;2.22;;
70929;SDS011;58588;48.102;19.682;2022-09-09T03:01:50;5.33;;;1.60;;
70929;SDS011;58588;48.102;19.682;2022-09-09T03:04:53;11.60;;;2.10;;
70929;SDS011;58588;48.102;19.682;2022-09-09T03:07:55;6.80;;;1.85;;
70929;SDS011;58588;48.102;19.682;2022-09-09T03:10:57;4.97;;;1.50;;
70929;SDS011;58588;48.102;19.682;2022-09-09T03:14:01;6.25;;;1.60;;
70929;SDS011;58588;48.102;19.682;2022-09-09T03:17:05;5.03;;;1.50;;
70929;SDS011;58588;48.102;19.682;2022-09-09T03:20:09;5.00;;;1.75;;
70929;SDS011;58588;48.102;19.682;2022-09-09T03:23:12;6.57;;;2.10;;
70929;SDS011;58588;48.102;19.682;2022-09-09T03:26:14;4.75;;;1.58;;
70929;SDS011;58588;48.102;19.682;2022-09-09T03:29:16;8.00;;;2.13;;
70929;SDS011;58588;48.102;19.682;2022-09-09T03:32:20;8.33;;;2.10;;
70929;SDS011;58588;48.102;19.682;2022-09-09T03:35:22;5.28;;;1.75;;
70929;SDS011;58588;48.102;19.682;2022-09-09T03:38:24;6.10;;;1.65;;
70929;SDS011;58588;48.102;19.682;2022-09-09T03:41:26;5.78;;;1.90;;
70929;SDS011;58588;48.102;19.682;2022-09-09T03:44:28;7.82;;;2.00;;
70929;SDS011;58588;48.102;19.682;2022-09-09T03:47:31;6.00;;;2.03;;
70929;SDS011;58588;48.102;19.682;2022-09-09T03:50:33;6.47;;;1.98;;
70929;SDS011;58588;48.102;19.682;2022-09-09T03:53:35;6.25;;;2.08;;
70929;SDS011;58588;48.102;19.682;2022-09-09T03:56:38;5.35;;;1.95;;
70929;SDS011;58588;48.102;19.682;2022-09-09T03:59:41;7.53;;;2.00;;
70929;SDS011;58588;48.102;19.682;2022-09-09T04:02:44;6.70;;;2.27;;
70929;SDS011;58588;48.102;19.682;2022-09-09T04:05:48;5.40;;;1.70;;
70929;SDS011;58588;48.102;19.682;2022-09-09T04:08:50;6.68;;;1.92;;
70929;SDS011;58588;48.102;19.682;2022-09-09T04:11:52;11.52;;;2.63;;
70929;SDS011;58588;48.102;19.682;2022-09-09T04:14:54;6.50;;;2.22;;
70929;SDS011;58588;48.102;19.682;2022-09-09T04:17:58;6.90;;;2.17;;
70929;SDS011;58588;48.102;19.682;2022-09-09T04:21:00;7.13;;;1.90;;
70929;SDS011;58588;48.102;19.682;2022-09-09T04:24:03;5.68;;;2.08;;
70929;SDS011;58588;48.102;19.682;2022-09-09T04:27:05;8.52;;;2.28;;
70929;SDS011;58588;48.102;19.682;2022-09-09T04:30:08;6.85;;;2.10;;
70929;SDS011;58588;48.102;19.682;2022-09-09T04:33:12;10.20;;;2.67;;
70929;SDS011;58588;48.102;19.682;2022-09-09T04:36:14;8.13;;;2.35;;
70929;SDS011;58588;48.102;19.682;2022-09-09T04:39:18;9.45;;;2.50;;
70929;SDS011;58588;48.102;19.682;2022-09-09T04:42:20;7.60;;;2.03;;
70929;SDS011;58588;48.102;19.682;2022-09-09T04:45:22;11.35;;;2.15;;
70929;SDS011;58588;48.102;19.682;2022-09-09T04:48:27;6.07;;;2.10;;
70929;SDS011;58588;48.102;19.682;2022-09-09T04:51:29;7.43;;;2.60;;
70929;SDS011;58588;48.102;19.682;2022-09-09T04:54:31;8.00;;;2.50;;
70929;SDS011;58588;48.102;19.682;2022-09-09T04:57:34;6.40;;;2.30;;
70929;SDS011;58588;48.102;19.682;2022-09-09T05:00:36;7.53;;;2.50;;
70929;SDS011;58588;48.102;19.682;2022-09-09T05:03:39;9.37;;;2.27;;
70929;SDS011;58588;48.102;19.682;2022-09-09T05:06:42;7.57;;;2.38;;
70929;SDS011;58588;48.102;19.682;2022-09-09T05:09:44;7.13;;;2.78;;
70929;SDS011;58588;48.102;19.682;2022-09-09T05:12:51;9.50;;;2.58;;
70929;SDS011;58588;48.102;19.682;2022-09-09T05:15:54;6.97;;;2.65;;
70929;SDS011;58588;48.102;19.682;2022-09-09T05:18:58;8.77;;;2.17;;
70929;SDS011;58588;48.102;19.682;2022-09-09T05:22:00;8.25;;;2.25;;
70929;SDS011;58588;48.102;19.682;2022-09-09T05:25:02;6.68;;;2.40;;
70929;SDS011;58588;48.102;19.682;2022-09-09T05:28:04;9.85;;;2.33;;
70929;SDS011;58588;48.102;19.682;2022-09-09T05:31:08;8.60;;;2.30;;
70929;SDS011;58588;48.102;19.682;2022-09-09T05:34:12;9.20;;;2.83;;
70929;SDS011;58588;48.102;19.682;2022-09-09T05:37:14;5.40;;;2.20;;
70929;SDS011;58588;48.102;19.682;2022-09-09T05:40:16;6.28;;;2.30;;
70929;SDS011;58588;48.102;19.682;2022-09-09T05:43:18;10.80;;;2.20;;
70929;SDS011;58588;48.102;19.682;2022-09-09T05:46:21;8.70;;;1.80;;
70929;SDS011;58588;48.102;19.682;2022-09-09T05:49:26;8.70;;;2.10;;
70929;SDS011;58588;48.102;19.682;2022-09-09T05:52:28;6.32;;;2.10;;
70929;SDS011;58588;48.102;19.682;2022-09-09T05:55:30;6.80;;;2.20;;
70929;SDS011;58588;48.102;19.682;2022-09-09T05:58:32;5.65;;;1.85;;
70929;SDS011;58588;48.102;19.682;2022-09-09T06:01:35;7.25;;;1.95;;
70929;SDS011;58588;48.102;19.682;2022-09-09T06:04:41;6.23;;;2.47;;
70929;SDS011;58588;48.102;19.682;2022-09-09T06:07:43;11.00;;;2.10;;
70929;SDS011;58588;48.102;19.682;2022-09-09T06:10:45;5.10;;;1.95;;
70929;SDS011;58588;48.102;19.682;2022-09-09T06:13:47;6.68;;;2.50;;
70929;SDS011;58588;48.102;19.682;2022-09-09T06:16:51;11.07;;;2.50;;
70929;SDS011;58588;48.102;19.682;2022-09-09T06:19:54;5.60;;;2.40;;
70929;SDS011;58588;48.102;19.682;2022-09-09T06:22:56;5.70;;;2.40;;
70929;SDS011;58588;48.102;19.682;2022-09-09T06:26:02;6.35;;;2.50;;
70929;SDS011;58588;48.102;19.682;2022-09-09T06:29:05;8.13;;;2.75;;
70929;SDS011;58588;48.102;19.682;2022-09-09T06:32:07;6.53;;;2.47;;
70929;SDS011;58588;48.102;19.682;2022-09-09T06:35:11;9.63;;;2.50;;
70929;SDS011;58588;48.102;19.682;2022-09-09T06:38:13;6.72;;;2.50;;
70929;SDS011;58588;48.102;19.682;2022-09-09T06:41:16;7.72;;;2.42;;
70929;SDS011;58588;48.102;19.682;2022-09-09T06:44:20;7.18;;;2.45;;
70929;SDS011;58588;48.102;19.682;2022-09-09T06:47:22;6.65;;;2.33;;
70929;SDS011;58588;48.102;19.682;2022-09-09T06:50:26;7.30;;;2.30;;
70929;SDS011;58588;48.102;19.682;2022-09-09T06:53:27;6.43;;;2.40;;
70929;SDS011;58588;48.102;19.682;2022-09-09T06:56:30;7.95;;;2.35;;
70929;SDS011;58588;48.102;19.682;2022-09-09T06:59:33;5.90;;;2.38;;
70929;SDS011;58588;48.102;19.682;2022-09-09T07:02:35;6.25;;;2.60;;
70929;SDS011;58588;48.102;19.682;2022-09-09T07:05:41;5.80;;;2.13;;
70929;SDS011;58588;48.102;19.682;2022-09-09T07:08:47;6.50;;;2.30;;
70929;SDS011;58588;48.102;19.682;2022-09-09T07:11:51;5.60;;;2.03;;
70929;SDS011;58588;48.102;19.682;2022-09-09T07:14:53;5.22;;;1.98;;
70929;SDS011;58588;48.102;19.682;2022-09-09T07:17:55;7.43;;;2.20;;
70929;SDS011;58588;48.102;19.682;2022-09-09T07:21:03;8.00;;;2.30;;
70929;SDS011;58588;48.102;19.682;2022-09-09T07:24:06;6.60;;;2.42;;
70929;SDS011;58588;48.102;19.682;2022-09-09T07:27:10;7.68;;;2.25;;
70929;SDS011;58588;48.102;19.682;2022-09-09T07:30:12;6.88;;;2.40;;
70929;SDS011;58588;48.102;19.682;2022-09-09T07:33:14;6.97;;;2.05;;
70929;SDS011;58588;48.102;19.682;2022-09-09T07:36:18;5.10;;;2.10;;
70929;SDS011;58588;48.102;19.682;2022-09-09T07:39:22;6.07;;;2.30;;
70929;SDS011;58588;48.102;19.682;2022-09-09T07:42:24;5.95;;;2.22;;
70929;SDS011;58588;48.102;19.682;2022-09-09T07:45:26;6.00;;;2.72;;
70929;SDS011;58588;48.102;19.682;2022-09-09T07:48:29;6.32;;;2.65;;
70929;SDS011;58588;48.102;19.682;2022-09-09T07:51:33;6.40;;;2.60;;
70929;SDS011;58588;48.102;19.682;2022-09-09T07:54:37;6.93;;;2.42;;
70929;SDS011;58588;48.102;19.682;2022-09-09T07:57:39;6.95;;;2.50;;
70929;SDS011;58588;48.102;19.682;2022-09-09T08:00:41;7.13;;;2.47;;
70929;SDS011;58588;48.102;19.682;2022-09-09T08:03:43;11.20;;;2.75;;
70929;SDS011;58588;48.102;19.682;2022-09-09T08:06:48;7.40;;;2.70;;
70929;SDS011;58588;48.102;19.682;2022-09-09T08:09:52;6.40;;;2.38;;
70929;SDS011;58588;48.102;19.682;2022-09-09T08:12:54;7.35;;;2.53;;
70929;SDS011;58588;48.102;19.682;2022-09-09T08:16:02;6.07;;;2.40;;
70929;SDS011;58588;48.102;19.682;2022-09-09T08:19:05;8.20;;;2.72;;
70929;SDS011;58588;48.102;19.682;2022-09-09T08:22:10;8.43;;;3.20;;
70929;SDS011;58588;48.102;19.682;2022-09-09T08:25:12;6.60;;;2.85;;
70929;SDS011;58588;48.102;19.682;2022-09-09T08:28:14;7.82;;;2.80;;
70929;SDS011;58588;48.102;19.682;2022-09-09T08:31:17;7.85;;;3.10;;
70929;SDS011;58588;48.102;19.682;2022-09-09T08:34:20;7.80;;;2.80;;
70929;SDS011;58588;48.102;19.682;2022-09-09T08:37:24;6.03;;;2.73;;
70929;SDS011;58588;48.102;19.682;2022-09-09T08:40:28;7.45;;;3.67;;
70929;SDS011;58588;48.102;19.682;2022-09-09T08:43:39;9.68;;;3.72;;
70929;SDS011;58588;48.102;19.682;2022-09-09T08:46:46;13.07;;;4.60;;
70929;SDS011;58588;48.102;19.682;2022-09-09T08:50:12;8.00;;;3.40;;
70929;SDS011;58588;48.102;19.682;2022-09-09T08:53:23;9.23;;;4.00;;
70929;SDS011;58588;48.102;19.682;2022-09-09T08:56:31;8.90;;;3.53;;
70929;SDS011;58588;48.102;19.682;2022-09-09T08:59:33;8.80;;;3.67;;
70929;SDS011;58588;48.102;19.682;2022-09-09T09:02:38;9.55;;;3.92;;
70929;SDS011;58588;48.102;19.682;2022-09-09T09:05:49;7.20;;;3.60;;
70929;SDS011;58588;48.102;19.682;2022-09-09T09:09:05;7.73;;;3.73;;
70929;SDS011;58588;48.102;19.682;2022-09-09T09:12:15;8.88;;;3.95;;
70929;SDS011;58588;48.102;19.682;2022-09-09T09:15:20;8.25;;;3.92;;
70929;SDS011;58588;48.102;19.682;2022-09-09T09:18:25;8.95;;;4.10;;
70929;SDS011;58588;48.102;19.682;2022-09-09T09:21:31;9.00;;;3.90;;
70929;SDS011;58588;48.102;19.682;2022-09-09T09:24:41;9.40;;;3.93;;
70929;SDS011;58588;48.102;19.682;2022-09-09T09:27:52;8.10;;;3.70;;
70929;SDS011;58588;48.102;19.682;2022-09-09T09:31:01;8.75;;;3.92;;
70929;SDS011;58588;48.102;19.682;2022-09-09T09:34:07;9.55;;;4.40;;
70929;SDS011;58588;48.102;19.682;2022-09-09T09:37:12;8.27;;;4.03;;
70929;SDS011;58588;48.102;19.682;2022-09-09T09:40:21;10.73;;;4.30;;
70929;SDS011;58588;48.102;19.682;2022-09-09T09:43:25;9.45;;;4.43;;
70929;SDS011;58588;48.102;19.682;2022-09-09T09:46:29;8.82;;;4.20;;
70929;SDS011;58588;48.102;19.682;2022-09-09T09:49:31;9.55;;;4.28;;
70929;SDS011;58588;48.102;19.682;2022-09-09T09:52:33;7.88;;;4.00;;
70929;SDS011;58588;48.102;19.682;2022-09-09T09:55:44;9.13;;;4.30;;
70929;SDS011;58588;48.102;19.682;2022-09-09T09:58:51;9.00;;;4.10;;
70929;SDS011;58588;48.102;19.682;2022-09-09T10:01:54;8.63;;;4.22;;
70929;SDS011;58588;48.102;19.682;2022-09-09T10:05:03;7.65;;;4.10;;
70929;SDS011;58588;48.102;19.682;2022-09-09T10:08:09;8.75;;;4.28;;
70929;SDS011;58588;48.102;19.682;2022-09-09T10:11:19;8.90;;;4.13;;
70929;SDS011;58588;48.102;19.682;2022-09-09T10:14:33;8.27;;;4.25;;
70929;SDS011;58588;48.102;19.682;2022-09-09T10:17:42;10.23;;;4.35;;
70929;SDS011;58588;48.102;19.682;2022-09-09T10:20:58;12.18;;;4.57;;
70929;SDS011;58588;48.102;19.682;2022-09-09T10:24:13;12.07;;;4.18;;
70929;SDS011;58588;48.102;19.682;2022-09-09T10:27:30;7.23;;;3.67;;
70929;SDS011;58588;48.102;19.682;2022-09-09T10:30:42;11.65;;;3.80;;
70929;SDS011;58588;48.102;19.682;2022-09-09T10:33:51;8.43;;;3.75;;
70929;SDS011;58588;48.102;19.682;2022-09-09T10:36:59;8.30;;;4.00;;
70929;SDS011;58588;48.102;19.682;2022-09-09T10:40:05;7.78;;;3.70;;
70929;SDS011;58588;48.102;19.682;2022-09-09T10:43:28;7.70;;;4.30;;
70929;SDS011;58588;48.102;19.682;2022-09-09T10:46:50;8.10;;;3.80;;
70929;SDS011;58588;48.102;19.682;2022-09-09T10:50:06;6.93;;;3.67;;
70929;SDS011;58588;48.102;19.682;2022-09-09T10:53:24;7.38;;;3.60;;
70929;SDS011;58588;48.102;19.682;2022-09-09T10:56:37;7.88;;;3.55;;
70929;SDS011;58588;48.102;19.682;2022-09-09T10:59:42;7.47;;;3.80;;
70929;SDS011;58588;48.102;19.682;2022-09-09T11:02:48;8.27;;;3.85;;
70929;SDS011;58588;48.102;19.682;2022-09-09T11:05:55;9.13;;;3.78;;
70929;SDS011;58588;48.102;19.682;2022-09-09T11:09:01;8.27;;;3.88;;
70929;SDS011;58588;48.102;19.682;2022-09-09T11:12:05;8.07;;;3.58;;
70929;SDS011;58588;48.102;19.682;2022-09-09T11:15:16;9.77;;;3.20;;
70929;SDS011;58588;48.102;19.682;2022-09-09T11:18:22;6.53;;;2.88;;
70929;SDS011;58588;48.102;19.682;2022-09-09T11:21:25;10.38;;;3.67;;
70929;SDS011;58588;48.102;19.682;2022-09-09T11:24:31;6.93;;;3.40;;
70929;SDS011;58588;48.102;19.682;2022-09-09T11:27:40;11.05;;;3.70;;
70929;SDS011;58588;48.102;19.682;2022-09-09T11:30:54;7.70;;;2.90;;
70929;SDS011;58588;48.102;19.682;2022-09-09T11:34:12;9.80;;;3.40;;
70929;SDS011;58588;48.102;19.682;2022-09-09T11:37:42;9.23;;;3.17;;
70929;SDS011;58588;48.102;19.682;2022-09-09T11:40:56;8.90;;;2.85;;
70929;SDS011;58588;48.102;19.682;2022-09-09T11:44:08;7.45;;;2.90;;
70929;SDS011;58588;48.102;19.682;2022-09-09T11:47:18;7.57;;;3.30;;
70929;SDS011;58588;48.102;19.682;2022-09-09T11:50:31;5.85;;;2.80;;
70929;SDS011;58588;48.102;19.682;2022-09-09T11:53:46;7.00;;;2.70;;
70929;SDS011;58588;48.102;19.682;2022-09-09T11:56:49;5.60;;;2.70;;
70929;SDS011;58588;48.102;19.682;2022-09-09T11:59:51;6.35;;;2.85;;
70929;SDS011;58588;48.102;19.682;2022-09-09T12:02:54;6.47;;;2.57;;
70929;SDS011;58588;48.102;19.682;2022-09-09T12:05:56;6.13;;;2.70;;
70929;SDS011;58588;48.102;19.682;2022-09-09T12:09:05;6.80;;;2.80;;
70929;SDS011;58588;48.102;19.682;2022-09-09T12:12:21;5.68;;;2.50;;
70929;SDS011;58588;48.102;19.682;2022-09-09T12:15:28;6.32;;;3.00;;
70929;SDS011;58588;48.102;19.682;2022-09-09T12:18:33;6.30;;;2.70;;
70929;SDS011;58588;48.102;19.682;2022-09-09T12:21:39;6.13;;;2.80;;
70929;SDS011;58588;48.102;19.682;2022-09-09T12:24:48;6.70;;;2.50;;
70929;SDS011;58588;48.102;19.682;2022-09-09T12:28:00;6.32;;;2.53;;
70929;SDS011;58588;48.102;19.682;2022-09-09T12:31:08;7.40;;;2.53;;
70929;SDS011;58588;48.102;19.682;2022-09-09T12:34:20;7.10;;;2.50;;
70929;SDS011;58588;48.102;19.682;2022-09-09T12:37:33;5.82;;;2.22;;
70929;SDS011;58588;48.102;19.682;2022-09-09T12:40:37;6.78;;;2.30;;
70929;SDS011;58588;48.102;19.682;2022-09-09T12:43:39;7.90;;;2.45;;
70929;SDS011;58588;48.102;19.682;2022-09-09T12:46:41;6.07;;;2.17;;
70929;SDS011;58588;48.102;19.682;2022-09-09T12:49:47;6.87;;;2.70;;
70929;SDS011;58588;48.102;19.682;2022-09-09T12:52:51;6.88;;;2.63;;
70929;SDS011;58588;48.102;19.682;2022-09-09T12:55:56;5.93;;;2.40;;
70929;SDS011;58588;48.102;19.682;2022-09-09T12:59:00;5.20;;;2.13;;
70929;SDS011;58588;48.102;19.682;2022-09-09T13:02:02;6.82;;;2.25;;
70929;SDS011;58588;48.102;19.682;2022-09-09T13:05:15;6.50;;;2.70;;
70929;SDS011;58588;48.102;19.682;2022-09-09T13:08:19;5.60;;;2.65;;
70929;SDS011;58588;48.102;19.682;2022-09-09T13:11:22;5.85;;;2.60;;
70929;SDS011;58588;48.102;19.682;2022-09-09T13:14:28;5.95;;;2.60;;
70929;SDS011;58588;48.102;19.682;2022-09-09T13:17:34;7.57;;;2.60;;
70929;SDS011;58588;48.102;19.682;2022-09-09T13:20:38;5.67;;;2.60;;
70929;SDS011;58588;48.102;19.682;2022-09-09T13:23:40;6.00;;;2.78;;
70929;SDS011;58588;48.102;19.682;2022-09-09T13:26:42;5.40;;;2.40;;
70929;SDS011;58588;48.102;19.682;2022-09-09T13:29:50;5.55;;;2.08;;
70929;SDS011;58588;48.102;19.682;2022-09-09T13:33:05;7.00;;;2.90;;
70929;SDS011;58588;48.102;19.682;2022-09-09T13:36:28;7.03;;;2.40;;
70929;SDS011;58588;48.102;19.682;2022-09-09T13:39:32;5.93;;;2.20;;
70929;SDS011;58588;48.102;19.682;2022-09-09T13:42:38;6.90;;;2.50;;
70929;SDS011;58588;48.102;19.682;2022-09-09T13:45:51;5.78;;;2.67;;
70929;SDS011;58588;48.102;19.682;2022-09-09T13:48:56;7.65;;;2.67;;
70929;SDS011;58588;48.102;19.682;2022-09-09T13:52:08;5.50;;;2.53;;
70929;SDS011;58588;48.102;19.682;2022-09-09T13:55:11;5.45;;;2.55;;
70929;SDS011;58588;48.102;19.682;2022-09-09T13:58:14;6.28;;;2.53;;
70929;SDS011;58588;48.102;19.682;2022-09-09T14:01:18;6.70;;;2.50;;
70929;SDS011;58588;48.102;19.682;2022-09-09T14:04:20;6.43;;;2.65;;
70929;SDS011;58588;48.102;19.682;2022-09-09T14:07:23;8.70;;;2.80;;
70929;SDS011;58588;48.102;19.682;2022-09-09T14:10:25;5.93;;;2.70;;
70929;SDS011;58588;48.102;19.682;2022-09-09T14:13:27;9.25;;;2.80;;
70929;SDS011;58588;48.102;19.682;2022-09-09T14:16:29;10.57;;;2.65;;
70929;SDS011;58588;48.102;19.682;2022-09-09T14:19:31;20.05;;;2.97;;
70929;SDS011;58588;48.102;19.682;2022-09-09T14:22:34;7.97;;;2.43;;
70929;SDS011;58588;48.102;19.682;2022-09-09T14:25:38;7.22;;;3.40;;
70929;SDS011;58588;48.102;19.682;2022-09-09T14:28:41;9.38;;;5.20;;
70929;SDS011;58588;48.102;19.682;2022-09-09T14:31:43;8.13;;;3.97;;
70929;SDS011;58588;48.102;19.682;2022-09-09T14:34:45;7.53;;;2.90;;
70929;SDS011;58588;48.102;19.682;2022-09-09T14:37:51;6.70;;;2.60;;
70929;SDS011;58588;48.102;19.682;2022-09-09T14:40:52;7.50;;;2.55;;
70929;SDS011;58588;48.102;19.682;2022-09-09T14:43:54;10.18;;;2.83;;
70929;SDS011;58588;48.102;19.682;2022-09-09T14:46:57;19.63;;;3.83;;
70929;SDS011;58588;48.102;19.682;2022-09-09T14:49:59;11.68;;;2.97;;
70929;SDS011;58588;48.102;19.682;2022-09-09T14:53:02;6.93;;;2.33;;
70929;SDS011;58588;48.102;19.682;2022-09-09T14:56:05;6.95;;;2.10;;
70929;SDS011;58588;48.102;19.682;2022-09-09T14:59:08;6.18;;;2.50;;
70929;SDS011;58588;48.102;19.682;2022-09-09T15:02:10;5.60;;;2.60;;
70929;SDS011;58588;48.102;19.682;2022-09-09T15:05:14;6.47;;;2.75;;
70929;SDS011;58588;48.102;19.682;2022-09-09T15:08:18;7.23;;;3.30;;
70929;SDS011;58588;48.102;19.682;2022-09-09T15:11:20;7.30;;;3.78;;
70929;SDS011;58588;48.102;19.682;2022-09-09T15:14:24;6.40;;;3.38;;
70929;SDS011;58588;48.102;19.682;2022-09-09T15:17:27;10.13;;;3.00;;
70929;SDS011;58588;48.102;19.682;2022-09-09T15:20:29;6.80;;;2.70;;
70929;SDS011;58588;48.102;19.682;2022-09-09T15:23:32;7.93;;;2.50;;
70929;SDS011;58588;48.102;19.682;2022-09-09T15:26:34;6.68;;;2.10;;
70929;SDS011;58588;48.102;19.682;2022-09-09T15:29:38;5.03;;;2.08;;
70929;SDS011;58588;48.102;19.682;2022-09-09T15:32:40;7.13;;;2.65;;
70929;SDS011;58588;48.102;19.682;2022-09-09T15:35:42;10.38;;;2.65;;
70929;SDS011;58588;48.102;19.682;2022-09-09T15:38:45;6.27;;;2.50;;
70929;SDS011;58588;48.102;19.682;2022-09-09T15:41:48;9.10;;;2.80;;
70929;SDS011;58588;48.102;19.682;2022-09-09T15:44:51;5.63;;;2.10;;
70929;SDS011;58588;48.102;19.682;2022-09-09T15:47:53;5.20;;;2.00;;
70929;SDS011;58588;48.102;19.682;2022-09-09T15:50:58;9.73;;;2.50;;
70929;SDS011;58588;48.102;19.682;2022-09-09T15:54:05;7.57;;;2.60;;
70929;SDS011;58588;48.102;19.682;2022-09-09T15:57:07;7.72;;;2.60;;
70929;SDS011;58588;48.102;19.682;2022-09-09T16:00:12;6.43;;;2.45;;
70929;SDS011;58588;48.102;19.682;2022-09-09T16:03:14;6.07;;;1.90;;
70929;SDS011;58588;48.102;19.682;2022-09-09T16:06:19;6.57;;;2.50;;
70929;SDS011;58588;48.102;19.682;2022-09-09T16:09:24;8.20;;;2.97;;
70929;SDS011;58588;48.102;19.682;2022-09-09T16:12:26;6.60;;;2.33;;
70929;SDS011;58588;48.102;19.682;2022-09-09T16:15:28;7.88;;;2.65;;
70929;SDS011;58588;48.102;19.682;2022-09-09T16:18:34;7.18;;;2.40;;
70929;SDS011;58588;48.102;19.682;2022-09-09T16:21:37;6.95;;;2.50;;
70929;SDS011;58588;48.102;19.682;2022-09-09T16:24:42;7.60;;;2.57;;
70929;SDS011;58588;48.102;19.682;2022-09-09T16:27:44;8.40;;;4.32;;
70929;SDS011;58588;48.102;19.682;2022-09-09T16:30:46;9.40;;;4.85;;
70929;SDS011;58588;48.102;19.682;2022-09-09T16:33:48;10.70;;;4.97;;
70929;SDS011;58588;48.102;19.682;2022-09-09T16:36:50;9.85;;;4.38;;
70929;SDS011;58588;48.102;19.682;2022-09-09T16:39:54;10.13;;;5.33;;
70929;SDS011;58588;48.102;19.682;2022-09-09T16:42:55;9.45;;;5.25;;
70929;SDS011;58588;48.102;19.682;2022-09-09T16:45:58;11.32;;;5.43;;
70929;SDS011;58588;48.102;19.682;2022-09-09T16:49:01;9.23;;;4.95;;
70929;SDS011;58588;48.102;19.682;2022-09-09T16:52:04;10.73;;;5.65;;
70929;SDS011;58588;48.102;19.682;2022-09-09T16:55:08;10.97;;;5.33;;
70929;SDS011;58588;48.102;19.682;2022-09-09T16:58:10;11.70;;;5.25;;
70929;SDS011;58588;48.102;19.682;2022-09-09T17:01:12;9.48;;;5.50;;
70929;SDS011;58588;48.102;19.682;2022-09-09T17:04:14;9.95;;;5.53;;
70929;SDS011;58588;48.102;19.682;2022-09-09T17:07:20;10.77;;;5.57;;
70929;SDS011;58588;48.102;19.682;2022-09-09T17:10:24;10.10;;;5.03;;
70929;SDS011;58588;48.102;19.682;2022-09-09T17:13:26;9.88;;;5.35;;
70929;SDS011;58588;48.102;19.682;2022-09-09T17:16:30;9.20;;;4.78;;
70929;SDS011;58588;48.102;19.682;2022-09-09T17:19:34;9.88;;;5.32;;
70929;SDS011;58588;48.102;19.682;2022-09-09T17:22:35;8.88;;;5.80;;
70929;SDS011;58588;48.102;19.682;2022-09-09T17:25:39;11.70;;;5.40;;
70929;SDS011;58588;48.102;19.682;2022-09-09T17:28:41;9.65;;;4.78;;
70929;SDS011;58588;48.102;19.682;2022-09-09T17:31:43;9.25;;;5.05;;
70929;SDS011;58588;48.102;19.682;2022-09-09T17:34:45;10.52;;;5.50;;
70929;SDS011;58588;48.102;19.682;2022-09-09T17:37:47;9.70;;;5.10;;
70929;SDS011;58588;48.102;19.682;2022-09-09T17:40:50;9.00;;;5.20;;
70929;SDS011;58588;48.102;19.682;2022-09-09T17:44:02;10.93;;;5.47;;
70929;SDS011;58588;48.102;19.682;2022-09-09T17:47:06;10.02;;;5.45;;
70929;SDS011;58588;48.102;19.682;2022-09-09T17:50:08;10.90;;;5.18;;
70929;SDS011;58588;48.102;19.682;2022-09-09T17:53:11;10.48;;;5.78;;
70929;SDS011;58588;48.102;19.682;2022-09-09T17:56:15;11.13;;;5.33;;
70929;SDS011;58588;48.102;19.682;2022-09-09T17:59:20;9.38;;;5.45;;
70929;SDS011;58588;48.102;19.682;2022-09-09T18:02:22;9.80;;;5.50;;
70929;SDS011;58588;48.102;19.682;2022-09-09T18:05:23;9.65;;;5.47;;
70929;SDS011;58588;48.102;19.682;2022-09-09T18:08:25;11.02;;;5.90;;
70929;SDS011;58588;48.102;19.682;2022-09-09T18:11:29;10.57;;;5.50;;
70929;SDS011;58588;48.102;19.682;2022-09-09T18:14:33;10.13;;;5.47;;
70929;SDS011;58588;48.102;19.682;2022-09-09T18:17:35;9.95;;;5.60;;
70929;SDS011;58588;48.102;19.682;2022-09-09T18:20:37;11.05;;;5.70;;
70929;SDS011;58588;48.102;19.682;2022-09-09T18:23:40;10.38;;;5.30;;
70929;SDS011;58588;48.102;19.682;2022-09-09T18:26:45;10.73;;;5.33;;